WETTERDATEN

GESTERN
Time Temp. Taup. r.Fe. Windrich Windstärke Windböe Druck 1h Prec. 24h Prec.
00:02 15 8.5 65 270 0.3 1.1 1014.8 0.0000 0.0000
00:12 15 8.5 65 309 0.3 1.1 1014.8 0.0000 0.0000
00:22 14.9 8.4 65 270 0.3 1.4 1014.8 0.0000 0.0000
00:32 14.9 8.4 65 270 0.3 1.1 1014.9 0.0000 0.0000
00:43 14.8 8.3 65 270 0.3 1.1 1015 0.0000 0.0000
00:53 14.7 8.2 65 270 0.3 1.1 1015.1 0.0000 0.0000
01:03 14.5 8 65 270 0.3 1.1 1015 0.0000 0.0000
01:13 14.2 7.5 64 270 0.3 1.1 1015.1 0.0000 0.0000
01:23 14.1 7.6 65 270 0.3 1.1 1015.1 0.0000 0.0000
01:33 14 7.5 65 270 0.3 0.8 1015.1 0.0000 0.0000
01:43 13.9 7.4 65 270 0.3 0.8 1015.2 0.0000 0.0000
01:54 13.8 7.3 65 270 0.3 1.1 1015.3 0.0000 0.0000
02:04 13.7 7.2 65 306 0.3 1.1 1015.2 0.0000 0.0000
02:14 13.6 7.2 65 270 0.3 1.1 1015.1 0.0000 0.0000
02:24 13.5 7.1 65 270 0.3 1.1 1015.2 0.0000 0.0000
02:34 13.4 7.2 66 270 0.3 0.8 1015.2 0.0000 0.0000
02:44 13.3 7.1 66 270 0.3 1.1 1015.1 0.0000 0.0000
02:54 13.2 7 66 270 0.3 1.1 1015.1 0.0000 0.0000
03:05 13.1 6.9 66 270 0.3 1.1 1015 0.0000 0.0000
03:14 12.9 6.7 66 270 0.3 1.1 1015 0.0000 0.0000
03:24 12.8 6.8 67 270 0.3 1.1 1015 0.0000 0.0000
03:34 12.7 6.7 67 270 0.3 1.1 1014.8 0.0000 0.0000
03:45 12.6 6.6 67 307 0.3 1.1 1014.8 0.0000 0.0000
03:55 12.5 6.5 67 303 0.3 1.1 1014.6 0.0000 0.0000
04:05 12.4 6.5 67 270 0.3 1.1 1014.6 0.0000 0.0000
04:15 12.3 6.4 67 311 0.3 1.1 1014.9 0.0000 0.0000
04:25 12.2 6.3 67 319 0.3 1.1 1014.6 0.0000 0.0000
04:35 12.1 6.2 67 304 0.3 1.1 1014.6 0.0000 0.0000
04:45 12 6.1 67 270 0.3 1.1 1014.6 0.0000 0.0000
04:56 11.9 6.2 68 270 0.3 1.1 1014.8 0.0000 0.0000
05:05 11.9 6.2 68 308 0.3 1.1 1014.5 0.0000 0.0000
05:15 11.9 6.2 68 307 0.3 1.1 1014.5 0.0000 0.0000
05:26 12 6.3 68 315 0.3 1.1 1014.5 0.0000 0.0000
05:36 12.1 6.4 68 315 0.3 1.1 1014.6 0.0000 0.0000
05:46 12.1 6.4 68 302 0.3 1.1 1014.5 0.0000 0.0000
05:56 12.2 6.7 69 306 0.3 0.8 1014.5 0.0000 0.0000
06:06 12.2 6.7 69 302 0.3 1.1 1014.4 0.0000 0.0000
06:16 12.3 6.8 69 270 0.3 1.1 1014.5 0.0000 0.0000
06:26 12.3 6.8 69 304 0.3 1.1 1014.5 0.0000 0.0000
06:36 12.4 6.9 69 306 0.3 1.1 1014.8 0.0000 0.0000
06:47 12.4 6.9 69 302 0.3 0.8 1014.9 0.0000 0.0000
06:57 12.5 7 69 270 0.3 1.1 1015 0.0000 0.0000
07:06 12.5 7 69 310 0.3 1.1 1015.1 0.0000 0.0000
07:17 12.6 7.1 69 270 0.3 1.1 1015.2 0.0000 0.0000
07:27 12.7 7.4 70 306 0.3 1.1 1015.3 0.0000 0.0000
07:37 12.8 7.5 70 270 0.3 1.1 1015.4 0.0000 0.0000
07:47 12.8 7.5 70 270 0.3 1.1 1015.4 0.0000 0.0000
07:57 12.8 7.5 70 270 0.3 1.1 1015.2 0.0000 0.0000
08:07 12.9 7.6 70 270 0.3 1.1 1015.3 0.0000 0.0000
08:17 13 7.7 70 270 0.3 1.4 1015.4 0.0000 0.0000
08:27 13.1 7.8 70 270 0.3 1.4 1015.4 0.0000 0.0000
08:38 13.2 7.9 70 270 0.3 1.1 1015.4 0.0000 0.0000
08:48 13.2 7.9 70 270 0.3 1.4 1015.3 0.0000 0.0000
08:57 13.3 7.7 69 270 0.3 1.1 1015.4 0.0000 0.0000
09:08 13.4 7.8 69 270 0.3 1.4 1015.3 0.0000 0.0000
09:18 13.4 7.8 69 230 0.3 1.4 1015.4 0.0000 0.0000
09:28 13.5 7.7 68 270 0.3 1.1 1015.3 0.0000 0.0000
09:38 13.5 7.7 68 243 0.8 1.9 1015.4 0.0000 0.0000
09:48 13.5 7.5 67 225 0.3 2.2 1015.5 0.0000 0.0000
09:58 13.5 7.5 67 270 0.3 1.1 1015.6 0.0000 0.0000
10:08 13.5 7.5 67 270 0.3 1.1 1015.5 0.0000 0.0000
10:19 13.5 7.5 67 270 0.8 1.9 1015.5 0.0000 0.0000
10:29 13.5 7.5 67 270 0.3 0.8 1015.5 0.0000 0.0000
10:39 13.6 7.6 67 219 0.3 1.4 1015.5 0.0000 0.0000
10:48 13.6 7.6 67 270 0.3 1.1 1015.6 0.0000 0.0000
10:59 13.7 7.5 66 225 0.8 1.9 1015.5 0.0000 0.0000
11:09 13.7 7.5 66 270 0.3 1.4 1015.3 0.0000 0.0000
11:19 13.8 7.6 66 270 0.3 1.1 1015.4 0.0000 0.0000
11:29 13.9 7.7 66 270 0.3 1.1 1015.4 0.0000 0.0000
11:40 14 7.5 65 239 0.8 1.9 1015.3 0.0000 0.0000
11:49 14.1 7.6 65 270 0.3 1.4 1015.4 0.0000 0.0000
11:59 14.2 7.7 65 218 0.3 1.4 1015.3 0.0000 0.0000
12:10 14.2 7.7 65 233 0.3 1.9 1015.4 0.0000 0.0000
12:20 14.3 7.8 65 270 0.3 1.1 1015.4 0.0000 0.0000
12:30 14.3 7.8 65 270 0.3 1.4 1015.3 0.0000 0.0000
12:40 14.4 7.9 65 270 0.3 1.1 1015.1 0.0000 0.0000
12:50 14.4 7.9 65 237 0.3 1.4 1015.4 0.0000 0.0000
13:00 14.5 8 65 270 0.3 1.4 1015.4 0.0000 0.0000
13:10 14.5 8 65 270 0.3 1.4 1015.1 0.0000 0.0000
13:21 14.6 8.1 65 270 0.3 1.4 1015.1 0.0000 0.0000
13:31 14.7 8 64 234 0.3 1.4 1014.9 0.0000 0.0000
13:40 14.8 8.1 64 225 0.8 2.5 1014.9 0.0000 0.0000
13:50 14.9 8.2 64 270 0.3 1.1 1014.8 0.0000 0.0000
14:01 15.1 8.3 64 270 0.3 1.1 1014.8 0.0000 0.0000
14:11 15.2 8.2 63 270 0.3 1.4 1014.8 0.0000 0.0000
14:21 15.2 8.2 63 296 0.8 1.9 1014.6 0.0000 0.0000
14:31 15.3 8.3 63 270 0.3 1.1 1014.5 0.0000 0.0000
14:41 15.5 8.5 63 270 0.3 1.1 1014.4 0.0000 0.0000
14:51 15.6 8.6 63 270 0.3 1.4 1014.4 0.0000 0.0000
15:01 15.8 8.8 63 240 0.8 1.9 1014.5 0.0000 0.0000
15:12 15.9 8.9 63 270 0.3 1.1 1014.4 0.0000 0.0000
15:21 16.2 9.2 63 270 0.3 1.4 1014.4 0.0000 0.0000
15:31 16.4 9.1 62 270 0.3 1.4 1014.2 0.0000 0.0000
15:41 16.5 9.2 62 270 0.3 1.4 1014.1 0.0000 0.0000
15:52 16.6 9.1 61 236 0.8 1.9 1014.2 0.0000 0.0000
16:02 16.7 9.2 61 270 0.8 1.4 1014.1 0.0000 0.0000
16:11 17 9.4 61 239 0.8 1.4 1014.2 0.0000 0.0000
16:22 17.3 9.7 61 253 0.8 1.4 1014 0.0000 0.0000
16:32 17.3 9.7 61 270 0.3 1.1 1014.1 0.0000 0.0000
16:42 17.4 9.6 60 229 0.8 2.2 1013.9 0.0000 0.0000
16:52 17.5 9.7 60 270 0.3 1.4 1013.9 0.0000 0.0000
17:02 17.6 9.8 60 270 0.3 1.1 1013.7 0.0000 0.0000
17:12 17.8 9.7 59 234 0.3 1.1 1013.7 0.0000 0.0000
17:22 17.8 9.7 59 229 0.8 1.4 1013.5 0.0000 0.0000
17:33 17.8 9.7 59 291 0.8 1.4 1013.3 0.0000 0.0000
17:43 17.8 9.9 60 270 0.3 1.1 1013.4 0.0000 0.0000
17:53 17.9 10 60 270 0.3 1.1 1013.3 0.0000 0.0000
18:02 18 9.9 59 270 0.3 1.4 1013.2 0.0000 0.0000
18:13 18 9.9 59 270 0.3 1.1 1013.2 0.0000 0.0000
18:23 17.9 9.8 59 270 0.3 1.4 1013.1 0.0000 0.0000
18:33 17.9 9.8 59 270 0.3 1.4 1013.2 0.0000 0.0000
18:43 17.9 9.8 59 255 0.8 1.1 1013.1 0.0000 0.0000
18:53 17.8 9.7 59 234 0.3 1.9 1013 0.0000 0.0000
19:03 17.8 9.7 59 270 0.3 1.4 1012.9 0.0000 0.0000
19:13 17.8 9.7 59 270 0.3 1.9 1012.9 0.0000 0.0000
19:24 17.7 9.6 59 240 0.3 1.4 1012.9 0.0000 0.0000
19:34 17.7 9.6 59 270 0.8 2.2 1013 0.0000 0.0000
19:43 17.7 9.6 59 270 0.3 1.1 1012.9 0.0000 0.0000
19:54 17.6 9.8 60 270 0.3 1.1 1012.9 0.0000 0.0000
20:04 17.6 9.8 60 270 0.3 1.1 1012.9 0.0000 0.0000
20:14 17.6 9.8 60 270 0.3 1.1 1012.9 0.0000 0.0000
20:24 17.6 9.8 60 270 0.3 1.4 1012.9 0.0000 0.0000
20:34 17.6 9.8 60 270 0.3 1.1 1012.9 0.0000 0.0000
20:44 17.5 9.7 60 270 0.3 1.1 1012.9 0.0000 0.0000
20:54 17.5 9.7 60 210 0.3 1.1 1012.8 0.0000 0.0000
21:04 17.4 9.6 60 270 0.3 1.1 1012.7 0.0000 0.0000
21:15 17.3 9.7 61 270 0.3 1.1 1012.8 0.0000 0.0000
21:25 17.2 9.6 61 270 0.3 1.1 1012.7 0.0000 0.0000
21:34 17 9.7 62 270 0.3 1.1 1012.7 0.0000 0.0000
21:45 16.8 9.5 62 270 0.3 1.1 1012.8 0.0000 0.0000
21:55 16.7 9.4 62 270 0.3 1.1 1012.9 0.0000 0.0000
22:05 16.5 9.4 63 270 0.3 1.1 1012.8 0.0000 0.0000
22:15 16.4 9.3 63 270 0.3 1.1 1012.9 0.0000 0.0000
22:25 16.2 9.4 64 270 0.3 1.1 1012.8 0.0000 0.0000
22:35 16.1 9.3 64 270 0.3 1.1 1012.9 0.0000 0.0000
22:45 16 9.2 64 270 0.3 1.1 1012.8 0.0000 0.0000
22:55 15.7 8.9 64 270 0.3 1.1 1013 0.0000 0.0000
23:06 15.5 8.7 64 305 0.3 1.1 1012.7 0.0000 0.0000
23:15 15.3 8.5 64 315 0.3 1.1 1012.8 0.0000 0.0000
23:25 15.1 8.6 65 315 0.3 1.1 1012.9 0.0000 0.0000
23:36 15 8.5 65 315 0.3 1.1 1012.8 0.0000 0.0000
23:46 14.8 8.5 66 315 0.3 1.1 1012.7 0.0000 0.0000
23:56 14.7 8.4 66 315 0.3 0.8 1012.7 0.0000 0.0000

TAGESSTATISTIK

2019-07-16
TEMPERATUR
MITTEL
14.8
MAXIMUM
18.0
18:02
MINIMUM
11.9
04:56
LUFTDRUCK
MITTEL
1014.4
MAXIMUM
1015.6
09:58
MINIMUM
1012.7
21:04
TAUPUNKT
MITTEL
8.2
MAXIMUM
10.0
17:53
MINIMUM
6.1
04:45
FEUCHTIGKEIT
MITTEL
65
MAXIMUM
70
07:27
MINIMUM
59
17:12
WINDSTÄRKE
MITTEL
0.4
MAXIMUM
0.8
09:38
WINDBÖE
MITTEL
1.2
MAXIMUM
2.5
13:40
WINDRICHTUNG
VORHERRSCHENDE
W
67.8%
N
0.0
NO
0.0
O
0.0
SO
0.0
S
0.0
SW
14.0
W
67.8
NW
18.2
NIEDERSCHLAG
REGEN STUNDE
0.0
REGEN TAG
0.0
TEMPERATUR (°C)
MINIMUM
11.9
MAXIMUM
18.0
MITTEL
14.8
LUFTDRUCK (hpa)
MINIMUM
1012.7
MAXIMUM
1015.6
MITTEL
1014.4
MESSGERÄT